Time;durP1;ratioP1;P1;durP2;ratioP2;P2;SDS_P1;SDS_P2;PMS_P1;PMS_P2;Temp;Humidity;BMP_temperature;BMP_pressure;BME280_temperature;BME280_humidity;BME280_pressure;Samples;Min_cycle;Max_cycle;Signal;HPM_P1;HPM_P2
2023/05/09 00:01:11;;;;;;;20.87;15.70;;;16.60;1.00;;;;;;5047600;28;20250;-75
2023/05/09 00:03:37;;;;;;;20.87;16.10;;;16.60;1.00;;;;;;5048467;28;20705;-74
2023/05/09 00:06:03;;;;;;;18.80;16.70;;;16.60;1.00;;;;;;5046690;28;20435;-74
2023/05/09 00:08:28;;;;;;;21.33;16.30;;;16.60;1.00;;;;;;5049360;28;20266;-75
2023/05/09 00:10:54;;;;;;;18.27;15.47;;;16.60;1.00;;;;;;5048384;28;20204;-75
2023/05/09 00:13:19;;;;;;;21.30;16.37;;;16.50;1.00;;;;;;5043423;28;20201;-75
2023/05/09 00:15:45;;;;;;;22.30;16.70;;;16.50;1.00;;;;;;5048909;28;20185;-74
2023/05/09 00:18:13;;;;;;;18.97;16.90;;;16.50;1.00;;;;;;5047289;28;20209;-75
2023/05/09 00:20:39;;;;;;;20.70;17.37;;;16.50;1.00;;;;;;5046499;28;20382;-75
2023/05/09 00:23:05;;;;;;;20.70;16.80;;;16.40;1.00;;;;;;5046560;28;20481;-74
2023/05/09 00:25:31;;;;;;;22.83;16.17;;;16.40;1.00;;;;;;5047435;28;20439;-75
2023/05/09 00:27:57;;;;;;;20.23;17.90;;;16.40;1.00;;;;;;5048620;28;20459;-74
2023/05/09 00:30:22;;;;;;;19.30;17.13;;;16.30;1.00;;;;;;5047369;28;20196;-75
2023/05/09 00:32:48;;;;;;;19.40;15.93;;;16.30;1.00;;;;;;5047664;28;20285;-75
2023/05/09 00:35:14;;;;;;;22.80;18.40;;;16.30;1.00;;;;;;5049323;28;20327;-75
2023/05/09 00:37:39;;;;;;;20.93;17.10;;;16.20;1.00;;;;;;5043544;28;20222;-75
2023/05/09 00:40:06;;;;;;;22.70;17.00;;;16.30;1.00;;;;;;5045829;28;20342;-75
2023/05/09 00:42:32;;;;;;;22.33;16.73;;;16.20;1.00;;;;;;5047402;28;20182;-75
2023/05/09 00:44:59;;;;;;;18.53;16.20;;;16.20;1.00;;;;;;5048411;28;20424;-75
2023/05/09 00:47:26;;;;;;;19.50;16.73;;;16.20;1.00;;;;;;5047374;28;20189;-75
2023/05/09 00:49:52;;;;;;;22.80;17.87;;;16.20;1.00;;;;;;5047773;28;20960;-75
2023/05/09 00:52:22;;;;;;;23.60;17.90;;;16.20;1.00;;;;;;5048311;28;20431;-74
2023/05/09 00:54:48;;;;;;;25.10;17.40;;;16.20;1.00;;;;;;5045213;28;20201;-74
2023/05/09 00:57:14;;;;;;;22.63;17.50;;;16.20;1.00;;;;;;5047243;28;20447;-75
2023/05/09 00:59:40;;;;;;;20.57;16.83;;;16.20;1.00;;;;;;5046882;28;20451;-75
2023/05/09 01:02:05;;;;;;;24.83;17.37;;;16.30;1.00;;;;;;5044284;28;20177;-75
2023/05/09 01:04:31;;;;;;;19.60;16.83;;;16.30;1.00;;;;;;5048333;28;20177;-75
2023/05/09 01:07:44;;;;;;;23.90;17.93;;;16.40;1.00;;;;;;5047850;28;20185;-75
2023/05/09 01:10:30;;;;;;;20.00;16.97;;;16.40;1.00;;;;;;5045987;28;20193;-74
2023/05/09 01:13:15;;;;;;;22.07;17.00;;;16.50;1.00;;;;;;5043420;28;21175;-74
2023/05/09 01:16:00;;;;;;;22.10;16.70;;;16.50;1.00;;;;;;5043927;28;20965;-75
2023/05/09 01:18:42;;;;;;;22.23;17.23;;;16.40;1.00;;;;;;5045677;28;20447;-74
2023/05/09 01:21:15;;;;;;;21.70;16.60;;;16.90;1.00;;;;;;5044967;28;20510;-74
2023/05/09 01:23:53;;;;;;;20.87;17.23;;;16.50;1.00;;;;;;5047238;28;20530;-75
2023/05/09 01:26:41;;;;;;;19.10;16.43;;;16.50;1.00;;;;;;5045508;28;20482;-74
2023/05/09 01:29:35;;;;;;;21.20;16.53;;;16.50;1.00;;;;;;5048260;28;20431;-75
2023/05/09 01:32:11;;;;;;;19.70;16.80;;;16.50;1.00;;;;;;5042817;28;20444;-75
2023/05/09 01:34:40;;;;;;;23.30;17.07;;;16.50;1.00;;;;;;5040863;28;20968;-75
2023/05/09 01:37:07;;;;;;;26.97;18.77;;;16.50;1.00;;;;;;5045549;28;20427;-75
2023/05/09 01:39:34;;;;;;;22.27;17.53;;;16.50;1.00;;;;;;5039349;28;20872;-74
2023/05/09 01:42:03;;;;;;;21.27;18.30;;;16.50;1.00;;;;;;5039262;28;20862;-74
2023/05/09 01:44:36;;;;;;;22.87;17.97;;;16.50;1.00;;;;;;5047237;28;20423;-74
2023/05/09 01:47:03;;;;;;;19.97;16.87;;;16.50;1.00;;;;;;5047692;28;20439;-74
2023/05/09 01:49:31;;;;;;;21.43;17.07;;;16.40;1.00;;;;;;5043229;28;20988;-75
2023/05/09 01:51:58;;;;;;;23.57;18.93;;;16.40;1.00;;;;;;5046014;28;20440;-75
2023/05/09 01:54:25;;;;;;;21.30;17.97;;;16.40;1.00;;;;;;5039465;28;20474;-74
2023/05/09 01:56:51;;;;;;;19.27;17.00;;;16.40;1.00;;;;;;5044737;28;20882;-75
2023/05/09 01:59:18;;;;;;;25.00;17.80;;;16.40;1.00;;;;;;5045906;28;20550;-75
2023/05/09 02:01:44;;;;;;;20.93;17.57;;;16.50;1.00;;;;;;5045759;28;20439;-75
2023/05/09 02:04:11;;;;;;;22.17;17.30;;;16.50;1.00;;;;;;5045723;28;20647;-76
2023/05/09 02:06:37;;;;;;;22.20;17.67;;;16.50;1.00;;;;;;5045394;28;20459;-74
2023/05/09 02:09:03;;;;;;;22.97;17.10;;;16.60;1.00;;;;;;5047377;28;20961;-74
2023/05/09 02:11:29;;;;;;;24.63;18.20;;;16.60;1.00;;;;;;5045637;28;20500;-75
2023/05/09 02:13:54;;;;;;;22.13;17.57;;;16.70;1.00;;;;;;5048054;28;20201;-74
2023/05/09 02:16:20;;;;;;;21.57;18.00;;;16.70;1.00;;;;;;5046130;28;20677;-74
2023/05/09 02:18:46;;;;;;;22.40;18.13;;;16.60;1.00;;;;;;5050303;28;20201;-75
2023/05/09 02:21:11;;;;;;;21.90;18.53;;;16.60;1.00;;;;;;5051574;28;20273;-74
2023/05/09 02:23:37;;;;;;;25.40;17.87;;;16.60;1.00;;;;;;5049789;28;20181;-75
2023/05/09 02:26:02;;;;;;;21.50;18.00;;;16.60;1.00;;;;;;5050701;28;20749;-74
2023/05/09 02:28:29;;;;;;;25.27;19.10;;;16.60;1.00;;;;;;5048034;28;20227;-74
2023/05/09 02:30:57;;;;;;;25.60;17.30;;;16.70;1.00;;;;;;5049941;28;20199;-74
2023/05/09 02:33:25;;;;;;;26.43;19.40;;;16.70;1.00;;;;;;5046589;28;20464;-74
2023/05/09 02:35:51;;;;;;;27.07;18.23;;;16.70;1.00;;;;;;5050978;28;20442;-74
2023/05/09 02:38:18;;;;;;;22.50;18.30;;;16.70;1.00;;;;;;5048144;28;20810;-74
2023/05/09 02:40:46;;;;;;;23.10;18.50;;;16.70;1.00;;;;;;5049723;28;20434;-74
2023/05/09 02:43:11;;;;;;;22.90;19.07;;;16.70;1.00;;;;;;5047428;28;20443;-75
2023/05/09 02:45:37;;;;;;;21.63;18.20;;;17.50;1.00;;;;;;5050327;28;20794;-74
2023/05/09 02:48:02;;;;;;;23.77;18.20;;;16.70;1.00;;;;;;5046055;28;20279;-74
2023/05/09 02:50:28;;;;;;;22.10;18.03;;;16.70;1.00;;;;;;5050571;28;20177;-75
2023/05/09 02:52:54;;;;;;;23.20;19.57;;;16.80;1.00;;;;;;5046851;28;20209;-74
2023/05/09 02:55:19;;;;;;;25.53;19.30;;;16.80;1.00;;;;;;5048010;28;20181;-74
2023/05/09 02:57:45;;;;;;;24.73;18.93;;;16.80;1.00;;;;;;5050733;28;20181;-74
2023/05/09 03:00:11;;;;;;;23.17;18.90;;;16.80;1.00;;;;;;5050049;28;20208;-74
2023/05/09 03:02:37;;;;;;;24.13;17.80;;;16.80;1.00;;;;;;5050494;28;20435;-75
2023/05/09 03:05:03;;;;;;;23.17;18.77;;;16.80;1.00;;;;;;5048853;28;20435;-75
2023/05/09 03:07:29;;;;;;;22.40;19.57;;;16.80;1.00;;;;;;5045671;28;20432;-75
2023/05/09 03:09:55;;;;;;;24.53;19.23;;;16.80;1.00;;;;;;5046132;28;20268;-75
2023/05/09 03:12:20;;;;;;;24.10;19.50;;;16.80;1.00;;;;;;5047703;28;20820;-74
2023/05/09 03:14:46;;;;;;;23.90;18.27;;;16.80;1.00;;;;;;5046992;28;20578;-75
2023/05/09 03:17:16;;;;;;;21.90;17.70;;;16.80;1.00;;;;;;5047665;28;20189;-75
2023/05/09 03:19:41;;;;;;;26.70;19.40;;;16.80;1.00;;;;;;5047874;28;20193;-75
2023/05/09 03:22:07;;;;;;;23.67;18.60;;;16.80;1.00;;;;;;5045035;28;20857;-75
2023/05/09 03:24:33;;;;;;;29.90;19.57;;;16.80;1.00;;;;;;5047227;28;20202;-75
2023/05/09 03:26:58;;;;;;;29.27;19.57;;;16.70;1.00;;;;;;5047497;28;20358;-75
2023/05/09 03:29:24;;;;;;;22.13;18.90;;;16.70;1.00;;;;;;5045737;28;20213;-75
2023/05/09 03:31:50;;;;;;;23.20;18.83;;;16.80;1.00;;;;;;5047662;28;20285;-74
2023/05/09 03:34:16;;;;;;;21.93;17.77;;;16.80;1.00;;;;;;5046056;28;20458;-75
2023/05/09 03:36:44;;;;;;;22.80;18.73;;;16.80;1.00;;;;;;5046436;28;20981;-74
2023/05/09 03:39:10;;;;;;;27.63;19.20;;;16.80;1.00;;;;;;5043219;28;20343;-74
2023/05/09 03:41:36;;;;;;;23.57;18.80;;;16.80;1.00;;;;;;5047683;28;20473;-75
2023/05/09 03:44:03;;;;;;;27.40;20.23;;;16.80;1.00;;;;;;5044242;28;20682;-74
2023/05/09 03:46:29;;;;;;;27.83;19.00;;;16.80;1.00;;;;;;5047845;28;20917;-74
2023/05/09 03:48:54;;;;;;;24.03;19.00;;;16.80;1.00;;;;;;5046535;28;20542;-74
2023/05/09 03:51:20;;;;;;;22.33;17.90;;;16.80;1.00;;;;;;5046027;28;20230;-74
2023/05/09 03:53:46;;;;;;;24.83;19.00;;;16.80;1.00;;;;;;5048079;28;20280;-74
2023/05/09 03:56:12;;;;;;;29.70;20.40;;;16.80;1.00;;;;;;5047156;28;20648;-74
2023/05/09 03:58:38;;;;;;;23.43;18.77;;;16.80;1.00;;;;;;5045489;28;20474;-74
2023/05/09 04:01:04;;;;;;;24.20;19.87;;;16.80;1.00;;;;;;5043916;28;20992;-74
2023/05/09 04:03:29;;;;;;;25.20;19.00;;;16.70;1.00;;;;;;5038262;28;20663;-74
2023/05/09 04:05:55;;;;;;;24.47;19.40;;;16.70;1.00;;;;;;5048612;28;20213;-75
2023/05/09 04:08:20;;;;;;;22.40;18.73;;;16.70;1.00;;;;;;5047359;28;20201;-75
2023/05/09 04:10:46;;;;;;;23.83;18.83;;;16.70;1.00;;;;;;5048268;28;20194;-74
2023/05/09 04:13:11;;;;;;;24.83;18.90;;;16.70;1.00;;;;;;5047820;28;20224;-75
2023/05/09 04:15:37;;;;;;;22.77;17.97;;;16.70;1.00;;;;;;5043498;28;20252;-74
2023/05/09 04:18:03;;;;;;;26.80;19.67;;;16.70;1.00;;;;;;5048068;28;20201;-74
2023/05/09 04:20:28;;;;;;;24.53;19.63;;;16.80;1.00;;;;;;5046863;28;20671;-74
2023/05/09 04:22:54;;;;;;;26.53;19.47;;;16.80;1.00;;;;;;5045286;28;20181;-74
2023/05/09 04:25:20;;;;;;;22.67;18.90;;;16.70;1.00;;;;;;5045689;28;20173;-74
2023/05/09 04:27:45;;;;;;;31.10;19.53;;;16.80;1.00;;;;;;5045023;28;20611;-74
2023/05/09 04:30:11;;;;;;;25.77;20.13;;;16.80;1.00;;;;;;5047018;28;20235;-74
2023/05/09 04:32:37;;;;;;;34.73;20.57;;;16.80;1.00;;;;;;5043354;28;20418;-75
2023/05/09 04:35:04;;;;;;;24.67;19.80;;;16.70;1.00;;;;;;5045684;28;20478;-74
2023/05/09 04:37:31;;;;;;;30.60;19.93;;;16.80;1.00;;;;;;5044202;28;20945;-74
2023/05/09 04:39:57;;;;;;;27.10;19.33;;;16.80;1.00;;;;;;5046501;28;20808;-74
2023/05/09 04:42:22;;;;;;;28.73;20.10;;;16.80;1.00;;;;;;5043240;28;20440;-75
2023/05/09 04:44:48;;;;;;;24.30;20.00;;;16.80;1.00;;;;;;5043411;28;20185;-75
2023/05/09 04:47:13;;;;;;;24.70;19.83;;;16.80;1.00;;;;;;5045846;28;20284;-75
2023/05/09 04:49:39;;;;;;;33.43;23.70;;;16.80;1.00;;;;;;5044085;28;20614;-75
2023/05/09 04:52:05;;;;;;;27.53;20.80;;;16.90;1.00;;;;;;5046281;28;20177;-75
2023/05/09 04:54:31;;;;;;;32.77;23.43;;;16.90;1.00;;;;;;5044915;28;20228;-74
2023/05/09 04:56:56;;;;;;;40.23;27.43;;;16.80;1.00;;;;;;5045561;28;20517;-76
2023/05/09 04:59:22;;;;;;;29.70;21.70;;;16.90;1.00;;;;;;5042326;28;20213;-74
2023/05/09 05:01:48;;;;;;;25.57;19.03;;;16.90;1.00;;;;;;5043847;28;20655;-74
2023/05/09 05:04:13;;;;;;;25.93;20.97;;;16.90;1.00;;;;;;5040750;28;20193;-74
2023/05/09 05:06:39;;;;;;;24.87;19.80;;;16.80;1.00;;;;;;5045242;28;20197;-75
2023/05/09 05:09:04;;;;;;;23.40;19.03;;;16.80;1.00;;;;;;5044517;28;20216;-75
2023/05/09 05:11:30;;;;;;;24.93;19.40;;;16.80;1.00;;;;;;5045067;28;20215;-75
2023/05/09 05:13:55;;;;;;;25.60;20.10;;;16.90;1.00;;;;;;5044122;28;20259;-75
2023/05/09 05:16:21;;;;;;;33.10;21.60;;;17.00;1.00;;;;;;5045054;28;20673;-75
2023/05/09 05:18:46;;;;;;;31.23;20.77;;;17.10;1.00;;;;;;5044955;28;20201;-75
2023/05/09 05:21:12;;;;;;;27.20;20.87;;;17.00;1.00;;;;;;5042335;28;20486;-75
2023/05/09 05:23:38;;;;;;;29.73;21.50;;;17.10;1.00;;;;;;5042445;28;20189;-76
2023/05/09 05:26:04;;;;;;;26.40;20.27;;;17.10;1.00;;;;;;5045822;28;20547;-76
2023/05/09 05:28:29;;;;;;;28.60;21.60;;;17.10;1.00;;;;;;5043136;28;20204;-76
2023/05/09 05:30:55;;;;;;;29.13;20.93;;;17.10;1.00;;;;;;5046411;28;20999;-76
2023/05/09 05:33:20;;;;;;;27.90;20.13;;;17.20;1.00;;;;;;5043072;28;20216;-75
2023/05/09 05:35:46;;;;;;;26.67;20.60;;;16.30;1.00;;;;;;5042923;28;20548;-75
2023/05/09 05:38:12;;;;;;;27.87;20.00;;;17.40;1.00;;;;;;5043645;28;20231;-75
2023/05/09 05:40:37;;;;;;;25.63;20.07;;;17.50;1.00;;;;;;5046296;28;20181;-76
2023/05/09 05:43:03;;;;;;;28.20;20.60;;;17.50;1.00;;;;;;5041050;28;21143;-76
2023/05/09 05:45:29;;;;;;;29.63;21.70;;;17.60;1.00;;;;;;5044173;28;20280;-76
2023/05/09 05:47:55;;;;;;;30.17;21.70;;;17.60;1.00;;;;;;5045661;28;20193;-76
2023/05/09 05:50:21;;;;;;;33.20;23.70;;;17.70;1.00;;;;;;5048262;28;20991;-76
2023/05/09 05:52:46;;;;;;;35.03;25.20;;;17.70;1.00;;;;;;5047857;28;20245;-76
2023/05/09 05:55:12;;;;;;;30.50;20.10;;;17.80;1.00;;;;;;5046631;28;20248;-76
2023/05/09 05:57:38;;;;;;;26.07;20.70;;;17.80;1.00;;;;;;5049622;28;20598;-75
2023/05/09 06:00:08;;;;;;;29.87;21.63;;;17.80;1.00;;;;;;5048483;28;20181;-76
2023/05/09 06:02:33;;;;;;;28.30;21.47;;;17.70;1.00;;;;;;5047863;28;20314;-76
2023/05/09 06:04:59;;;;;;;26.73;20.90;;;17.60;1.00;;;;;;5050227;28;20526;-76
2023/05/09 06:07:25;;;;;;;25.53;20.17;;;17.60;1.00;;;;;;5043809;28;20185;-75
2023/05/09 06:09:50;;;;;;;28.17;19.70;;;17.70;1.00;;;;;;5049268;28;20281;-76
2023/05/09 06:12:16;;;;;;;26.70;20.73;;;17.80;1.00;;;;;;5048645;28;20280;-76
2023/05/09 06:14:42;;;;;;;28.10;20.17;;;18.00;1.00;;;;;;5048153;28;20204;-75
2023/05/09 06:17:07;;;;;;;27.67;20.90;;;18.20;1.00;;;;;;5049158;28;20211;-76
2023/05/09 06:19:33;;;;;;;35.00;21.47;;;18.30;1.00;;;;;;5048674;28;20494;-76
2023/05/09 06:21:58;;;;;;;32.47;20.40;;;18.40;1.00;;;;;;5047920;28;20177;-75
2023/05/09 06:24:24;;;;;;;28.70;19.90;;;18.50;1.00;;;;;;5047279;28;20529;-76
2023/05/09 06:26:50;;;;;;;28.90;20.47;;;16.90;1.00;;;;;;5105300;22;20851;-74
2023/05/09 06:29:15;;;;;;;32.80;21.50;;;18.70;1.00;;;;;;5056072;28;20960;-76
2023/05/09 06:31:41;;;;;;;29.33;20.43;;;18.70;1.00;;;;;;5049102;28;20193;-75
2023/05/09 06:34:07;;;;;;;29.30;20.47;;;18.70;1.00;;;;;;5052244;28;20208;-75
2023/05/09 06:36:33;;;;;;;30.63;21.77;;;18.60;1.00;;;;;;5050579;28;20687;-75
2023/05/09 06:38:59;;;;;;;28.60;20.47;;;18.50;1.00;;;;;;5042307;28;20180;-75
2023/05/09 06:41:25;;;;;;;28.10;20.20;;;18.30;1.00;;;;;;5035328;28;20866;-75
2023/05/09 06:43:51;;;;;;;29.23;20.53;;;18.20;1.00;;;;;;5034933;28;20455;-75
2023/05/09 06:46:17;;;;;;;30.60;19.27;;;18.10;1.00;;;;;;5044835;28;20522;-75
2023/05/09 06:48:42;;;;;;;34.77;22.10;;;18.10;1.00;;;;;;5037408;28;20466;-75
2023/05/09 06:51:08;;;;;;;34.03;21.77;;;18.00;1.00;;;;;;5035907;28;20181;-75
2023/05/09 06:53:34;;;;;;;34.30;21.77;;;18.10;1.00;;;;;;5049137;28;20236;-76
2023/05/09 06:55:59;;;;;;;34.10;22.40;;;18.20;1.00;;;;;;5036073;28;20306;-74
2023/05/09 06:58:26;;;;;;;33.70;22.07;;;18.30;1.00;;;;;;5040600;28;20182;-75
2023/05/09 07:00:52;;;;;;;35.13;23.27;;;18.40;1.00;;;;;;5032113;28;20213;-75
2023/05/09 07:03:18;;;;;;;33.50;21.83;;;18.30;1.00;;;;;;5031964;28;20802;-75
2023/05/09 07:05:43;;;;;;;31.70;21.40;;;18.50;1.00;;;;;;5034175;28;20460;-75
2023/05/09 07:08:09;;;;;;;34.50;23.13;;;18.50;1.00;;;;;;5037713;28;20188;-75
2023/05/09 07:10:35;;;;;;;33.07;21.70;;;18.50;1.00;;;;;;5043356;28;20182;-77
2023/05/09 07:13:00;;;;;;;35.07;22.80;;;18.50;1.00;;;;;;5032387;28;20192;-78
2023/05/09 07:15:26;;;;;;;33.57;23.83;;;18.40;1.00;;;;;;5019277;28;20209;-75
2023/05/09 07:17:51;;;;;;;33.17;22.20;;;18.40;1.00;;;;;;5034757;28;20182;-76
2023/05/09 07:20:17;;;;;;;28.53;21.77;;;18.30;1.00;;;;;;5044708;28;20268;-76
2023/05/09 07:22:43;;;;;;;32.00;21.80;;;18.30;1.00;;;;;;5028382;28;20228;-76
2023/05/09 07:25:08;;;;;;;34.83;23.00;;;18.30;1.00;;;;;;5048487;28;20186;-77
2023/05/09 07:27:35;;;;;;;33.60;23.10;;;18.30;1.00;;;;;;5036164;28;20189;-76
2023/05/09 07:30:02;;;;;;;41.37;24.13;;;18.30;1.00;;;;;;5027267;28;20277;-77
2023/05/09 07:32:28;;;;;;;33.07;22.67;;;19.90;1.00;;;;;;5029684;28;20443;-75
2023/05/09 07:34:54;;;;;;;35.20;23.53;;;18.30;1.00;;;;;;5028527;28;20468;-77
2023/05/09 07:37:19;;;;;;;35.40;22.83;;;18.40;1.00;;;;;;5034124;28;20698;-76
2023/05/09 07:39:46;;;;;;;30.53;22.57;;;18.70;1.00;;;;;;5033864;28;20524;-76
2023/05/09 07:42:12;;;;;;;30.63;20.80;;;19.10;1.00;;;;;;5031236;28;20189;-76
2023/05/09 07:44:37;;;;;;;36.57;22.80;;;19.50;1.00;;;;;;5026526;28;20534;-76
2023/05/09 07:47:04;;;;;;;31.40;21.77;;;19.60;1.00;;;;;;5029647;28;20213;-74
2023/05/09 07:49:30;;;;;;;37.23;23.07;;;19.50;1.00;;;;;;5030959;28;20182;-77
2023/05/09 07:51:55;;;;;;;36.93;23.63;;;19.30;1.00;;;;;;5033161;28;20519;-76
2023/05/09 07:54:21;;;;;;;32.80;22.20;;;19.30;1.00;;;;;;5028370;28;20506;-76
2023/05/09 07:56:46;;;;;;;31.87;22.73;;;19.60;1.00;;;;;;5030363;28;20208;-78
2023/05/09 07:59:12;;;;;;;31.20;21.70;;;20.10;1.00;;;;;;5025364;28;20637;-75
2023/05/09 08:01:37;;;;;;;32.70;22.80;;;20.50;1.00;;;;;;5030528;28;20182;-75
2023/05/09 08:04:05;;;;;;;32.63;21.07;;;20.70;1.00;;;;;;5025808;28;20186;-75
2023/05/09 08:06:31;;;;;;;30.87;21.50;;;20.80;1.00;;;;;;5027611;28;21560;-75
2023/05/09 08:08:56;;;;;;;31.00;20.57;;;20.90;1.00;;;;;;5042199;28;20452;-76
2023/05/09 08:11:22;;;;;;;30.40;21.90;;;21.00;1.00;;;;;;5036853;28;20452;-76
2023/05/09 08:13:47;;;;;;;32.17;21.50;;;21.20;1.00;;;;;;5031413;28;20259;-77
2023/05/09 08:16:13;;;;;;;29.00;22.10;;;21.20;1.00;;;;;;5033206;28;20207;-76
2023/05/09 08:18:39;;;;;;;27.90;21.30;;;21.50;1.00;;;;;;5035104;28;20264;-76
2023/05/09 08:21:04;;;;;;;28.00;21.20;;;21.60;1.00;;;;;;5027614;28;20212;-77
2023/05/09 08:23:30;;;;;;;29.63;22.17;;;21.50;1.00;;;;;;5042220;28;20267;-76
2023/05/09 08:25:55;;;;;;;29.97;21.90;;;21.50;1.00;;;;;;5030041;28;20598;-76
2023/05/09 08:28:27;;;;;;;30.30;21.00;;;21.50;1.00;;;;;;5027566;28;20189;-76
2023/05/09 08:30:54;;;;;;;29.57;22.23;;;21.30;1.00;;;;;;5034372;28;20196;-76
2023/05/09 08:33:19;;;;;;;31.70;22.47;;;21.40;1.00;;;;;;5034887;28;20515;-76
2023/05/09 08:35:50;;;;;;;30.97;22.57;;;21.40;1.00;;;;;;5026392;28;20869;-76
2023/05/09 08:38:15;;;;;;;31.00;22.70;;;21.40;1.00;;;;;;5033887;28;20593;-76
2023/05/09 08:40:41;;;;;;;30.70;22.53;;;21.20;1.00;;;;;;5028361;28;20436;-76
2023/05/09 08:43:07;;;;;;;31.53;23.63;;;20.90;1.00;;;;;;5026888;28;20217;-76
2023/05/09 08:45:50;;;;;;;32.73;22.27;;;20.70;1.00;;;;;;5029649;28;20201;-75
2023/05/09 08:48:16;;;;;;;31.97;22.63;;;20.70;1.00;;;;;;5025780;28;21721;-76
2023/05/09 08:50:42;;;;;;;33.33;22.00;;;20.70;1.00;;;;;;5031006;28;20436;-78
2023/05/09 08:53:08;;;;;;;32.80;23.10;;;20.80;1.00;;;;;;5030605;28;20209;-75
2023/05/09 08:55:34;;;;;;;37.90;21.97;;;20.80;1.00;;;;;;5025390;28;20500;-72
2023/05/09 08:57:59;;;;;;;29.57;21.50;;;21.00;1.00;;;;;;5029739;28;20607;-77
2023/05/09 09:00:26;;;;;;;28.80;20.57;;;21.40;1.00;;;;;;5028078;28;20251;-75
2023/05/09 09:02:52;;;;;;;27.47;21.23;;;21.70;1.00;;;;;;5028853;28;20667;-76
2023/05/09 09:05:18;;;;;;;26.67;20.50;;;21.50;1.00;;;;;;5030209;28;20435;-76
2023/05/09 09:07:45;;;;;;;25.23;20.57;;;21.50;1.00;;;;;;5026783;28;20475;-76
2023/05/09 09:10:12;;;;;;;26.00;21.20;;;21.40;1.00;;;;;;5031750;28;20440;-77
2023/05/09 09:12:38;;;;;;;26.23;19.60;;;21.80;1.00;;;;;;5027335;28;20436;-77
2023/05/09 09:15:06;;;;;;;25.00;19.80;;;21.50;1.00;;;;;;5026654;28;20464;-76
2023/05/09 09:17:34;;;;;;;25.80;20.90;;;21.60;1.00;;;;;;5033325;28;20749;-75
2023/05/09 09:20:04;;;;;;;25.03;20.00;;;21.90;1.00;;;;;;5026901;28;20481;-78
2023/05/09 09:22:32;;;;;;;26.60;19.43;;;22.20;1.00;;;;;;5034734;28;20531;-77
2023/05/09 09:25:00;;;;;;;25.80;19.37;;;22.70;1.00;;;;;;5028626;28;20542;-76
2023/05/09 09:27:26;;;;;;;23.13;19.43;;;23.10;1.00;;;;;;5031019;28;20555;-76
2023/05/09 09:29:51;;;;;;;24.30;19.40;;;23.30;1.00;;;;;;5035191;28;20465;-77
2023/05/09 09:32:18;;;;;;;25.73;19.40;;;23.60;1.00;;;;;;5034061;28;20263;-77
2023/05/09 09:35:05;;;;;;;24.97;21.00;;;23.60;1.00;;;;;;5032413;28;20735;-76
2023/05/09 09:37:33;;;;;;;25.63;19.40;;;23.60;1.00;;;;;;5025098;28;20447;-77
2023/05/09 09:39:58;;;;;;;23.53;19.10;;;23.60;1.00;;;;;;5032765;28;20439;-76
2023/05/09 09:42:24;;;;;;;22.77;19.57;;;23.20;1.00;;;;;;5023780;28;20878;-75
2023/05/09 09:45:01;;;;;;;23.00;19.13;;;22.80;1.00;;;;;;5034826;28;20232;-76
2023/05/09 09:47:33;;;;;;;30.57;19.63;;;22.80;1.00;;;;;;5028497;28;20618;-77
2023/05/09 09:50:09;;;;;;;22.93;19.33;;;22.80;1.00;;;;;;5036756;28;20455;-76
2023/05/09 09:52:35;;;;;;;29.93;20.70;;;22.90;1.00;;;;;;5040883;28;20467;-76
2023/05/09 09:55:01;;;;;;;29.70;19.10;;;23.00;1.00;;;;;;5028435;28;20549;-77
2023/05/09 09:57:35;;;;;;;21.80;18.73;;;23.20;1.00;;;;;;5036585;28;20192;-75
2023/05/09 10:00:00;;;;;;;22.47;18.87;;;23.60;1.00;;;;;;5030729;28;20512;-75
2023/05/09 10:02:26;;;;;;;24.53;19.80;;;23.70;1.00;;;;;;5035454;28;20434;-77
2023/05/09 10:04:51;;;;;;;22.03;17.17;;;24.10;1.00;;;;;;5027564;28;20189;-75
2023/05/09 10:07:22;;;;;;;22.10;17.23;;;24.10;1.00;;;;;;5023745;28;20216;-75
2023/05/09 10:09:48;;;;;;;20.00;16.80;;;23.90;1.00;;;;;;5026222;28;20268;-75
2023/05/09 10:12:18;;;;;;;21.53;17.20;;;24.00;1.00;;;;;;5033813;28;20606;-76
2023/05/09 10:14:44;;;;;;;20.30;16.33;;;24.20;1.00;;;;;;5029950;28;20196;-75
2023/05/09 10:17:13;;;;;;;19.10;16.33;;;24.80;1.00;;;;;;5027455;28;20949;-76
2023/05/09 10:19:45;;;;;;;20.73;16.33;;;25.60;1.00;;;;;;5032529;28;20483;-77
2023/05/09 10:22:13;;;;;;;19.40;15.60;;;26.20;1.00;;;;;;5026095;28;20458;-76
2023/05/09 10:25:03;;;;;;;18.37;16.43;;;26.40;1.00;;;;;;5026728;28;20439;-75
2023/05/09 10:27:33;;;;;;;19.30;15.40;;;26.60;1.00;;;;;;5025467;28;20463;-76
2023/05/09 10:30:18;;;;;;;18.90;15.53;;;26.90;1.00;;;;;;5024821;28;20443;-76
2023/05/09 10:33:07;;;;;;;17.07;14.40;;;26.90;1.00;;;;;;5024399;28;20434;-77
2023/05/09 10:35:38;;;;;;;20.47;15.10;;;26.40;1.00;;;;;;5022883;28;21026;-75
2023/05/09 10:38:05;;;;;;;17.90;15.30;;;26.30;1.00;;;;;;5029956;28;20435;-76
2023/05/09 10:40:33;;;;;;;20.13;14.20;;;26.30;1.00;;;;;;5030306;28;20447;-75
2023/05/09 10:42:59;;;;;;;17.30;14.70;;;26.70;1.00;;;;;;5032439;28;20447;-77
2023/05/09 10:45:25;;;;;;;17.03;12.90;;;27.80;1.00;;;;;;5032826;28;20443;-75
2023/05/09 10:47:52;;;;;;;16.47;11.57;;;27.90;1.00;;;;;;5027305;28;20185;-76
2023/05/09 10:50:19;;;;;;;20.00;13.63;;;28.10;1.00;;;;;;5026854;28;20520;-75
2023/05/09 10:53:02;;;;;;;17.03;12.70;;;27.80;1.00;;;;;;5032797;28;20185;-77
2023/05/09 10:55:54;;;;;;;15.87;12.30;;;27.30;1.00;;;;;;5028594;28;20209;-76
2023/05/09 10:58:32;;;;;;;14.03;11.67;;;27.40;1.00;;;;;;5029518;28;20440;-77
2023/05/09 11:00:59;;;;;;;15.00;12.20;;;28.30;1.00;;;;;;5026755;28;20439;-76
2023/05/09 11:03:26;;;;;;;12.93;10.60;;;28.60;1.00;;;;;;5032355;28;20278;-76
2023/05/09 11:05:55;;;;;;;14.60;10.73;;;28.50;1.00;;;;;;5034389;28;20758;-76
2023/05/09 11:08:28;;;;;;;11.17;9.53;;;28.00;1.00;;;;;;5029901;28;20564;-76
2023/05/09 11:11:02;;;;;;;10.73;9.17;;;27.30;1.00;;;;;;5032242;28;20249;-75
2023/05/09 11:13:36;;;;;;;15.73;9.93;;;26.90;1.00;;;;;;5035524;28;20578;-77
2023/05/09 11:16:01;;;;;;;13.63;10.93;;;26.80;1.00;;;;;;5031147;28;20544;-76
2023/05/09 11:18:28;;;;;;;14.13;10.27;;;26.10;1.00;;;;;;5035103;28;20452;-76
2023/05/09 11:20:54;;;;;;;12.23;10.93;;;26.60;1.00;;;;;;5031506;28;20667;-76
2023/05/09 11:23:24;;;;;;;13.10;10.80;;;26.90;1.00;;;;;;5029704;28;21070;-76
2023/05/09 11:25:50;;;;;;;12.50;9.33;;;27.00;1.00;;;;;;5025534;28;20565;-76
2023/05/09 11:28:34;;;;;;;11.50;9.77;;;27.00;1.00;;;;;;5029306;28;20470;-77
2023/05/09 11:31:13;;;;;;;12.47;9.50;;;27.30;1.00;;;;;;5031832;28;20426;-76
2023/05/09 11:33:40;;;;;;;12.77;10.70;;;26.90;1.00;;;;;;5031057;28;20521;-77
2023/05/09 11:36:26;;;;;;;9.77;8.60;;;26.70;1.00;;;;;;5031358;28;20456;-76
2023/05/09 11:39:01;;;;;;;13.43;11.10;;;26.80;1.00;;;;;;5027338;28;20486;-77
2023/05/09 11:41:27;;;;;;;13.07;10.80;;;26.80;1.00;;;;;;5035626;28;20991;-76
2023/05/09 11:43:55;;;;;;;10.80;9.70;;;26.60;1.00;;;;;;5026554;28;20459;-77
2023/05/09 11:46:20;;;;;;;11.97;10.00;;;25.90;1.00;;;;;;5028743;28;20220;-77
2023/05/09 11:48:47;;;;;;;12.70;10.07;;;25.50;1.00;;;;;;5041234;28;20431;-77
2023/05/09 11:51:17;;;;;;;12.60;9.80;;;25.20;1.00;;;;;;5026969;28;20244;-77
2023/05/09 11:53:45;;;;;;;13.43;10.07;;;25.10;1.00;;;;;;5030843;28;20466;-77
2023/05/09 11:56:12;;;;;;;11.80;10.00;;;25.30;1.00;;;;;;5025383;28;20456;-77
2023/05/09 11:58:38;;;;;;;12.13;10.20;;;25.60;1.00;;;;;;5033652;28;20443;-78
2023/05/09 12:01:04;;;;;;;11.63;9.37;;;26.10;1.00;;;;;;5027131;28;20459;-78
2023/05/09 12:03:30;;;;;;;10.93;9.70;;;26.20;1.00;;;;;;5036300;28;21079;-75
2023/05/09 12:05:55;;;;;;;10.73;9.63;;;26.10;1.00;;;;;;5038592;28;20534;-76
2023/05/09 12:08:23;;;;;;;11.73;9.00;;;25.90;1.00;;;;;;5027141;28;20197;-77
2023/05/09 12:10:49;;;;;;;9.50;8.33;;;26.00;1.00;;;;;;5028693;28;20251;-76
2023/05/09 12:13:14;;;;;;;10.10;8.80;;;25.80;1.00;;;;;;5031917;28;20871;-77
2023/05/09 12:15:40;;;;;;;14.27;8.20;;;25.60;1.00;;;;;;5037030;28;20563;-76
2023/05/09 12:18:07;;;;;;;10.30;8.07;;;25.60;1.00;;;;;;5027154;28;20215;-76
2023/05/09 12:20:44;;;;;;;12.03;8.30;;;25.20;1.00;;;;;;5030276;28;20213;-76
2023/05/09 12:23:11;;;;;;;13.30;7.77;;;25.00;1.00;;;;;;5029778;28;20427;-76
2023/05/09 12:28:02;;;;;;;9.90;8.00;;;25.00;1.00;;;;;;5067682;22;20498;-82
2023/05/09 12:30:28;;;;;;;9.70;8.17;;;25.00;1.00;;;;;;5044698;28;20247;-78
2023/05/09 12:32:55;;;;;;;15.33;7.80;;;24.40;1.00;;;;;;5047464;28;20185;-77
2023/05/09 12:35:22;;;;;;;11.67;9.83;;;24.20;1.00;;;;;;5042817;28;20216;-78
2023/05/09 12:37:56;;;;;;;8.93;7.90;;;24.10;1.00;;;;;;5043351;28;20897;-78
2023/05/09 12:40:22;;;;;;;8.70;7.80;;;23.60;1.00;;;;;;5046194;28;20477;-79
2023/05/09 12:42:47;;;;;;;9.60;8.00;;;23.60;1.00;;;;;;5054220;28;20467;-77